PWSweather.com
Personal Weather Stations
Station Observations
ISYDDANM23
Felsted, AabenraaDK 6200

FelstedAabenraaDK 6200

Lat: 54.977066, Lon: 9.507192

Elevation: 135

Station Type: Davis Vantage Pro 2 Plus 24H

http://www.valkaer.dk

High Low Average
Temperature 57.9°F14.4°C 40.7°F4.8°C 48.6°F9.2°C
Dew Point 39.4°F4.1°C 33.6°F0.9°C 36.5°F2.5°C
Winds 16.1 mph 25.9 kmh Calm Calm 7.0 mph NW11.3 kmh NW
Wind Gusts 18.4 mph29.6 kmh -- 11.0 mph17.7 kmh
Humidity 83% 41% 65%
Pressure 30.65 in1037.9 mb 30.58 in1035.6 mb -
Precipitation 0.00 in0.0 mm - -
Hour Temp Dew Point Humidity Winds Wind Gusts Pressure Precip Precip Rate Daily Precip Total
12:00 AM 40.7°F4.8°C 34.4°F1.3°C 78% 8.1 mph WNW13.0 kmh WNW 10.4 mph16.7 kmh 30.58 in1035.6 mb - 0.00 in0.0 mm 0.00 in0.0 mm
12:10 AM 41.0°F5.0°C 34.3°F1.3°C 77% 4.6 mph WNW7.4 kmh WNW 4.6 mph7.4 kmh 30.59 in1035.9 mb - 0.00 in0.0 mm 0.00 in0.0 mm
12:15 AM 40.9°F4.9°C 34.2°F1.2°C 77% 6.9 mph WNW11.1 kmh WNW 9.2 mph14.8 kmh 30.58 in1035.6 mb - 0.00 in0.0 mm 0.00 in0.0 mm
12:20 AM 41.0°F5.0°C 34.3°F1.3°C 77% 5.8 mph NW9.3 kmh NW 9.2 mph14.8 kmh 30.58 in1035.6 mb - 0.00 in0.0 mm 0.00 in0.0 mm
12:25 AM 41.1°F5.1°C 34.4°F1.3°C 77% 5.8 mph NW9.3 kmh NW 10.4 mph16.7 kmh 30.59 in1035.9 mb - 0.00 in0.0 mm 0.00 in0.0 mm
12:30 AM 41.3°F5.2°C 34.6°F1.4°C 77% 5.8 mph W9.3 kmh W 6.9 mph11.1 kmh 30.58 in1035.6 mb - 0.00 in0.0 mm 0.00 in0.0 mm
12:35 AM 41.1°F5.1°C 34.5°F1.4°C 77% 4.6 mph WNW7.4 kmh WNW 10.4 mph16.7 kmh 30.58 in1035.6 mb - 0.00 in0.0 mm 0.00 in0.0 mm
12:40 AM 41.3°F5.2°C 34.3°F1.3°C 76% 5.8 mph WNW9.3 kmh WNW 10.4 mph16.7 kmh 30.59 in1035.9 mb - 0.00 in0.0 mm 0.00 in0.0 mm
12:45 AM 41.4°F5.2°C 34.4°F1.3°C 76% 4.6 mph W7.4 kmh W 9.2 mph14.8 kmh 30.59 in1035.9 mb - 0.00 in0.0 mm 0.00 in0.0 mm
12:50 AM 41.4°F5.2°C 34.7°F1.5°C 77% 5.8 mph NW9.3 kmh NW 8.1 mph13.0 kmh 30.59 in1035.9 mb - 0.00 in0.0 mm 0.00 in0.0 mm
12:55 AM 41.3°F5.2°C 34.6°F1.4°C 77% 6.9 mph WNW11.1 kmh WNW 9.2 mph14.8 kmh 30.59 in1035.9 mb - 0.00 in0.0 mm 0.00 in0.0 mm
01:00 AM 41.2°F5.1°C 34.5°F1.4°C 77% 5.8 mph NW9.3 kmh NW 11.5 mph18.5 kmh 30.59 in1035.9 mb - 0.00 in0.0 mm 0.00 in0.0 mm
01:10 AM 41.3°F5.2°C 34.6°F1.4°C 77% 5.8 mph NW9.3 kmh NW 8.1 mph13.0 kmh 30.59 in1035.9 mb - 0.00 in0.0 mm 0.00 in0.0 mm
01:15 AM 41.1°F5.1°C 34.5°F1.4°C 77% 4.6 mph WNW7.4 kmh WNW 8.1 mph13.0 kmh 30.59 in1035.9 mb - 0.00 in0.0 mm 0.00 in0.0 mm
01:20 AM 41.3°F5.2°C 34.6°F1.4°C 77% 5.8 mph WNW9.3 kmh WNW 11.5 mph18.5 kmh 30.58 in1035.6 mb - 0.00 in0.0 mm 0.00 in0.0 mm
01:25 AM 41.3°F5.2°C 34.6°F1.4°C 77% 4.6 mph NW7.4 kmh NW 8.1 mph13.0 kmh 30.58 in1035.6 mb - 0.00 in0.0 mm 0.00 in0.0 mm
01:30 AM 41.3°F5.2°C 34.6°F1.4°C 77% 5.8 mph NW9.3 kmh NW 10.4 mph16.7 kmh 30.58 in1035.6 mb - 0.00 in0.0 mm 0.00 in0.0 mm
01:35 AM 41.4°F5.2°C 35.0°F1.7°C 78% 4.6 mph NW7.4 kmh NW 8.1 mph13.0 kmh 30.58 in1035.6 mb - 0.00 in0.0 mm 0.00 in0.0 mm
01:40 AM 41.3°F5.2°C 34.6°F1.4°C 77% 5.8 mph NW9.3 kmh NW 10.4 mph16.7 kmh 30.59 in1035.9 mb - 0.00 in0.0 mm 0.00 in0.0 mm
01:45 AM 41.5°F5.3°C 35.2°F1.8°C 78% 5.8 mph WNW9.3 kmh WNW 8.1 mph13.0 kmh 30.58 in1035.6 mb - 0.00 in0.0 mm 0.00 in0.0 mm
01:50 AM 41.8°F5.4°C 35.4°F1.9°C 78% 5.8 mph NW9.3 kmh NW 4.6 mph7.4 kmh 30.58 in1035.6 mb - 0.00 in0.0 mm 0.00 in0.0 mm
01:55 AM 41.8°F5.4°C 35.5°F1.9°C 78% 8.1 mph NW13.0 kmh NW 9.2 mph14.8 kmh 30.58 in1035.6 mb - 0.00 in0.0 mm 0.00 in0.0 mm
02:00 AM 42.0°F5.6°C 35.3°F1.8°C 77% 6.9 mph NW11.1 kmh NW 10.4 mph16.7 kmh 30.58 in1035.6 mb - 0.00 in0.0 mm 0.00 in0.0 mm
02:10 AM 41.9°F5.5°C 35.6°F2.0°C 78% 8.1 mph NW13.0 kmh NW 10.4 mph16.7 kmh 30.58 in1035.6 mb - 0.00 in0.0 mm 0.00 in0.0 mm
02:15 AM 42.0°F5.6°C 35.6°F2.0°C 78% 10.4 mph WNW16.7 kmh WNW 15.0 mph24.1 kmh 30.59 in1035.9 mb - 0.00 in0.0 mm 0.00 in0.0 mm
02:20 AM 42.1°F5.6°C 35.7°F2.1°C 78% 8.1 mph NW13.0 kmh NW 10.4 mph16.7 kmh 30.58 in1035.6 mb - 0.00 in0.0 mm 0.00 in0.0 mm
02:25 AM 41.9°F5.5°C 35.6°F2.0°C 78% 5.8 mph NW9.3 kmh NW 9.2 mph14.8 kmh 30.59 in1035.9 mb - 0.00 in0.0 mm 0.00 in0.0 mm
02:30 AM 41.9°F5.5°C 35.9°F2.2°C 79% 8.1 mph WNW13.0 kmh WNW 10.4 mph16.7 kmh 30.59 in1035.9 mb - 0.00 in0.0 mm 0.00 in0.0 mm
02:35 AM 41.8°F5.4°C 35.8°F2.1°C 79% 6.9 mph NW11.1 kmh NW 10.4 mph16.7 kmh 30.59 in1035.9 mb - 0.00 in0.0 mm 0.00 in0.0 mm
02:40 AM 41.8°F5.4°C 36.1°F2.3°C 80% 6.9 mph NW11.1 kmh NW 9.2 mph14.8 kmh 30.59 in1035.9 mb - 0.00 in0.0 mm 0.00 in0.0 mm
02:45 AM 41.8°F5.4°C 36.1°F2.3°C 80% 8.1 mph NW13.0 kmh NW 10.4 mph16.7 kmh 30.59 in1035.9 mb - 0.00 in0.0 mm 0.00 in0.0 mm
02:50 AM 41.9°F5.5°C 36.2°F2.3°C 80% 5.8 mph WNW9.3 kmh WNW 11.5 mph18.5 kmh 30.59 in1035.9 mb - 0.00 in0.0 mm 0.00 in0.0 mm
02:55 AM 41.9°F5.5°C 36.2°F2.3°C 80% 9.2 mph NW14.8 kmh NW 12.7 mph20.4 kmh 30.59 in1035.9 mb - 0.00 in0.0 mm 0.00 in0.0 mm
03:00 AM 42.1°F5.6°C 36.4°F2.4°C 80% 8.1 mph NW13.0 kmh NW 13.8 mph22.2 kmh 30.59 in1035.9 mb - 0.00 in0.0 mm 0.00 in0.0 mm
03:10 AM 42.1°F5.6°C 36.4°F2.4°C 80% 8.1 mph NW13.0 kmh NW 10.4 mph16.7 kmh 30.60 in1036.2 mb - 0.00 in0.0 mm 0.00 in0.0 mm
03:15 AM 42.2°F5.7°C 36.4°F2.4°C 80% 8.1 mph NW13.0 kmh NW 10.4 mph16.7 kmh 30.60 in1036.2 mb - 0.00 in0.0 mm 0.00 in0.0 mm
03:20 AM 42.1°F5.6°C 36.4°F2.4°C 80% 6.9 mph NW11.1 kmh NW 10.4 mph16.7 kmh 30.60 in1036.2 mb - 0.00 in0.0 mm 0.00 in0.0 mm
03:25 AM 42.1°F5.6°C 36.3°F2.4°C 80% 6.9 mph NW11.1 kmh NW 10.4 mph16.7 kmh 30.60 in1036.2 mb - 0.00 in0.0 mm 0.00 in0.0 mm
03:30 AM 42.0°F5.6°C 36.6°F2.6°C 81% 5.8 mph NW9.3 kmh NW 8.1 mph13.0 kmh 30.60 in1036.2 mb - 0.00 in0.0 mm 0.00 in0.0 mm
03:35 AM 42.1°F5.6°C 36.7°F2.6°C 81% 9.2 mph NW14.8 kmh NW 13.8 mph22.2 kmh 30.60 in1036.2 mb - 0.00 in0.0 mm 0.00 in0.0 mm
03:40 AM 42.2°F5.7°C 36.8°F2.7°C 81% 8.1 mph NW13.0 kmh NW 11.5 mph18.5 kmh 30.60 in1036.2 mb - 0.00 in0.0 mm 0.00 in0.0 mm
03:45 AM 42.1°F5.6°C 36.7°F2.6°C 81% 6.9 mph NW11.1 kmh NW 11.5 mph18.5 kmh 30.60 in1036.2 mb - 0.00 in0.0 mm 0.00 in0.0 mm
03:50 AM 42.1°F5.6°C 36.7°F2.6°C 81% 8.1 mph NW13.0 kmh NW 9.2 mph14.8 kmh 30.60 in1036.2 mb - 0.00 in0.0 mm 0.00 in0.0 mm
03:55 AM 42.0°F5.6°C 36.6°F2.6°C 81% 10.4 mph NW16.7 kmh NW 12.7 mph20.4 kmh 30.60 in1036.2 mb - 0.00 in0.0 mm 0.00 in0.0 mm
04:00 AM 42.0°F5.6°C 36.6°F2.6°C 81% 8.1 mph NW13.0 kmh NW 11.5 mph18.5 kmh 30.60 in1036.2 mb - 0.00 in0.0 mm 0.00 in0.0 mm
04:10 AM 41.7°F5.4°C 36.6°F2.6°C 82% 6.9 mph NNW11.1 kmh NNW 11.5 mph18.5 kmh 30.61 in1036.6 mb - 0.00 in0.0 mm 0.00 in0.0 mm
04:15 AM 41.6°F5.3°C 36.5°F2.5°C 82% 9.2 mph NW14.8 kmh NW 15.0 mph24.1 kmh 30.61 in1036.6 mb - 0.00 in0.0 mm 0.00 in0.0 mm
04:20 AM 41.6°F5.3°C 36.5°F2.5°C 82% 8.1 mph NNW13.0 kmh NNW 11.5 mph18.5 kmh 30.60 in1036.2 mb - 0.00 in0.0 mm 0.00 in0.0 mm
04:25 AM 41.6°F5.3°C 36.5°F2.5°C 82% 11.5 mph NW18.5 kmh NW 15.0 mph24.1 kmh 30.60 in1036.2 mb - 0.00 in0.0 mm 0.00 in0.0 mm
04:30 AM 41.6°F5.3°C 36.5°F2.5°C 82% 8.1 mph NW13.0 kmh NW 12.7 mph20.4 kmh 30.60 in1036.2 mb - 0.00 in0.0 mm 0.00 in0.0 mm
04:35 AM 41.4°F5.2°C 36.3°F2.4°C 82% 8.1 mph NW13.0 kmh NW 9.2 mph14.8 kmh 30.60 in1036.2 mb - 0.00 in0.0 mm 0.00 in0.0 mm
04:40 AM 41.3°F5.2°C 36.2°F2.3°C 82% 8.1 mph NNW13.0 kmh NNW 11.5 mph18.5 kmh 30.60 in1036.2 mb - 0.00 in0.0 mm 0.00 in0.0 mm
04:45 AM 41.3°F5.2°C 36.5°F2.5°C 83% 9.2 mph NW14.8 kmh NW 12.7 mph20.4 kmh 30.60 in1036.2 mb - 0.00 in0.0 mm 0.00 in0.0 mm
04:50 AM 41.3°F5.2°C 36.5°F2.5°C 83% 8.1 mph NW13.0 kmh NW 11.5 mph18.5 kmh 30.61 in1036.6 mb - 0.00 in0.0 mm 0.00 in0.0 mm
04:55 AM 41.2°F5.1°C 36.4°F2.4°C 83% 6.9 mph NW11.1 kmh NW 10.4 mph16.7 kmh 30.61 in1036.6 mb - 0.00 in0.0 mm 0.00 in0.0 mm
05:00 AM 41.3°F5.2°C 36.6°F2.6°C 83% 6.9 mph NW11.1 kmh NW 10.4 mph16.7 kmh 30.61 in1036.6 mb - 0.00 in0.0 mm 0.00 in0.0 mm
05:10 AM 41.5°F5.3°C 36.7°F2.6°C 83% 8.1 mph NW13.0 kmh NW 10.4 mph16.7 kmh 30.62 in1036.9 mb - 0.00 in0.0 mm 0.00 in0.0 mm
05:15 AM 41.6°F5.3°C 36.8°F2.7°C 83% 6.9 mph NNW11.1 kmh NNW 15.0 mph24.1 kmh 30.62 in1036.9 mb - 0.00 in0.0 mm 0.00 in0.0 mm
05:20 AM 41.6°F5.3°C 36.8°F2.7°C 83% 8.1 mph NNW13.0 kmh NNW 12.7 mph20.4 kmh 30.62 in1036.9 mb - 0.00 in0.0 mm 0.00 in0.0 mm
05:25 AM 41.7°F5.4°C 36.9°F2.7°C 83% 8.1 mph NW13.0 kmh NW 11.5 mph18.5 kmh 30.61 in1036.6 mb - 0.00 in0.0 mm 0.00 in0.0 mm
05:30 AM 41.9°F5.5°C 36.8°F2.7°C 82% 5.8 mph NW9.3 kmh NW 9.2 mph14.8 kmh 30.62 in1036.9 mb - 0.00 in0.0 mm 0.00 in0.0 mm
05:35 AM 42.1°F5.6°C 37.0°F2.8°C 82% 8.1 mph NW13.0 kmh NW 11.5 mph18.5 kmh 30.62 in1036.9 mb - 0.00 in0.0 mm 0.00 in0.0 mm
05:40 AM 42.2°F5.7°C 37.1°F2.8°C 82% 9.2 mph NW14.8 kmh NW 9.2 mph14.8 kmh 30.62 in1036.9 mb - 0.00 in0.0 mm 0.00 in0.0 mm
05:45 AM 42.3°F5.7°C 37.2°F2.9°C 82% 6.9 mph NW11.1 kmh NW 10.4 mph16.7 kmh 30.62 in1036.9 mb - 0.00 in0.0 mm 0.00 in0.0 mm
05:50 AM 42.5°F5.8°C 37.4°F3.0°C 82% 6.9 mph NW11.1 kmh NW 8.1 mph13.0 kmh 30.62 in1036.9 mb - 0.00 in0.0 mm 0.00 in0.0 mm
05:55 AM 42.6°F5.9°C 37.2°F2.9°C 81% 6.9 mph NW11.1 kmh NW 12.7 mph20.4 kmh 30.62 in1036.9 mb - 0.00 in0.0 mm 0.00 in0.0 mm
06:00 AM 42.9°F6.1°C 37.4°F3.0°C 81% 5.8 mph NW9.3 kmh NW 10.4 mph16.7 kmh 30.62 in1036.9 mb - 0.00 in0.0 mm 0.00 in0.0 mm
06:10 AM 43.2°F6.2°C 37.8°F3.2°C 81% 5.8 mph NNW9.3 kmh NNW 8.1 mph13.0 kmh 30.62 in1036.9 mb - 0.00 in0.0 mm 0.00 in0.0 mm
06:15 AM 43.4°F6.3°C 38.0°F3.3°C 81% 6.9 mph NW11.1 kmh NW 11.5 mph18.5 kmh 30.62 in1036.9 mb - 0.00 in0.0 mm 0.00 in0.0 mm
06:20 AM 43.5°F6.4°C 37.8°F3.2°C 80% 8.1 mph NW13.0 kmh NW 10.4 mph16.7 kmh 30.62 in1036.9 mb - 0.00 in0.0 mm 0.00 in0.0 mm
06:25 AM 43.7°F6.5°C 37.9°F3.3°C 80% 8.1 mph NW13.0 kmh NW 11.5 mph18.5 kmh 30.62 in1036.9 mb - 0.00 in0.0 mm 0.00 in0.0 mm
06:30 AM 43.9°F6.6°C 38.1°F3.4°C 80% 8.1 mph NW13.0 kmh NW 12.7 mph20.4 kmh 30.62 in1036.9 mb - 0.00 in0.0 mm 0.00 in0.0 mm
06:35 AM 44.2°F6.8°C 38.4°F3.6°C 80% 6.9 mph NW11.1 kmh NW 11.5 mph18.5 kmh 30.62 in1036.9 mb - 0.00 in0.0 mm 0.00 in0.0 mm
06:40 AM 44.4°F6.9°C 38.3°F3.5°C 79% 8.1 mph NW13.0 kmh NW 11.5 mph18.5 kmh 30.62 in1036.9 mb - 0.00 in0.0 mm 0.00 in0.0 mm
06:45 AM 44.6°F7.0°C 38.2°F3.4°C 78% 8.1 mph NW13.0 kmh NW 11.5 mph18.5 kmh 30.62 in1036.9 mb - 0.00 in0.0 mm 0.00 in0.0 mm
06:50 AM 44.8°F7.1°C 38.4°F3.6°C 78% 9.2 mph NW14.8 kmh NW 11.5 mph18.5 kmh 30.62 in1036.9 mb - 0.00 in0.0 mm 0.00 in0.0 mm
06:55 AM 45.1°F7.3°C 38.7°F3.7°C 78% 4.6 mph NW7.4 kmh NW 8.1 mph13.0 kmh 30.62 in1036.9 mb - 0.00 in0.0 mm 0.00 in0.0 mm
07:00 AM 45.4°F7.4°C 38.6°F3.7°C 77% 4.6 mph NNW7.4 kmh NNW 8.1 mph13.0 kmh 30.62 in1036.9 mb - 0.00 in0.0 mm 0.00 in0.0 mm
07:10 AM 45.8°F7.7°C 38.3°F3.5°C 75% 6.9 mph NW11.1 kmh NW 12.7 mph20.4 kmh 30.63 in1037.3 mb - 0.00 in0.0 mm 0.00 in0.0 mm
07:15 AM 46.0°F7.8°C 38.5°F3.6°C 75% 6.9 mph NW11.1 kmh NW 11.5 mph18.5 kmh 30.63 in1037.3 mb - 0.00 in0.0 mm 0.00 in0.0 mm
07:20 AM 46.1°F7.8°C 38.3°F3.5°C 74% 8.1 mph NNW13.0 kmh NNW 13.8 mph22.2 kmh 30.63 in1037.3 mb - 0.00 in0.0 mm 0.00 in0.0 mm
07:25 AM 46.4°F8.0°C 38.6°F3.7°C 74% 5.8 mph NW9.3 kmh NW 8.1 mph13.0 kmh 30.63 in1037.3 mb - 0.00 in0.0 mm 0.00 in0.0 mm
07:30 AM 46.8°F8.2°C 38.2°F3.4°C 72% 9.2 mph NW14.8 kmh NW 10.4 mph16.7 kmh 30.63 in1037.3 mb - 0.00 in0.0 mm 0.00 in0.0 mm
07:35 AM 46.9°F8.3°C 39.0°F3.9°C 74% 4.6 mph NW7.4 kmh NW 8.1 mph13.0 kmh 30.63 in1037.3 mb - 0.00 in0.0 mm 0.00 in0.0 mm
07:40 AM 46.9°F8.3°C 38.3°F3.5°C 72% 8.1 mph NW13.0 kmh NW 12.7 mph20.4 kmh 30.63 in1037.3 mb - 0.00 in0.0 mm 0.00 in0.0 mm
07:45 AM 47.4°F8.6°C 38.4°F3.6°C 71% 6.9 mph NW11.1 kmh NW 11.5 mph18.5 kmh 30.63 in1037.3 mb - 0.00 in0.0 mm 0.00 in0.0 mm
07:50 AM 47.5°F8.6°C 38.6°F3.7°C 71% 9.2 mph NNW14.8 kmh NNW 11.5 mph18.5 kmh 30.64 in1037.6 mb - 0.00 in0.0 mm 0.00 in0.0 mm
07:55 AM 47.5°F8.6°C 38.5°F3.6°C 71% 8.1 mph NW13.0 kmh NW 10.4 mph16.7 kmh 30.64 in1037.6 mb - 0.00 in0.0 mm 0.00 in0.0 mm
08:00 AM 47.8°F8.8°C 38.4°F3.6°C 70% 6.9 mph NW11.1 kmh NW 10.4 mph16.7 kmh 30.64 in1037.6 mb - 0.00 in0.0 mm 0.00 in0.0 mm
08:10 AM 48.3°F9.1°C 38.6°F3.7°C 69% 4.6 mph NNW7.4 kmh NNW 9.2 mph14.8 kmh 30.64 in1037.6 mb - 0.00 in0.0 mm 0.00 in0.0 mm
08:15 AM 48.7°F9.3°C 38.2°F3.4°C 67% 8.1 mph NW13.0 kmh NW 12.7 mph20.4 kmh 30.64 in1037.6 mb - 0.00 in0.0 mm 0.00 in0.0 mm
08:20 AM 48.6°F9.2°C 37.7°F3.2°C 66% 8.1 mph NW13.0 kmh NW 11.5 mph18.5 kmh 30.64 in1037.6 mb - 0.00 in0.0 mm 0.00 in0.0 mm
08:25 AM 48.9°F9.4°C 38.0°F3.3°C 66% 6.9 mph NNW11.1 kmh NNW 9.2 mph14.8 kmh 30.64 in1037.6 mb - 0.00 in0.0 mm 0.00 in0.0 mm
08:30 AM 49.4°F9.7°C 37.3°F2.9°C 63% 8.1 mph NW13.0 kmh NW 11.5 mph18.5 kmh 30.65 in1037.9 mb - 0.00 in0.0 mm 0.00 in0.0 mm
08:35 AM 49.4°F9.7°C 38.1°F3.4°C 65% 5.8 mph NNW9.3 kmh NNW 11.5 mph18.5 kmh 30.65 in1037.9 mb - 0.00 in0.0 mm 0.00 in0.0 mm
08:40 AM 49.6°F9.8°C 37.5°F3.1°C 63% 5.8 mph NNW9.3 kmh NNW 8.1 mph13.0 kmh 30.65 in1037.9 mb - 0.00 in0.0 mm 0.00 in0.0 mm
08:45 AM 50.0°F10.0°C 38.3°F3.5°C 64% 8.1 mph NW13.0 kmh NW 11.5 mph18.5 kmh 30.65 in1037.9 mb - 0.00 in0.0 mm 0.00 in0.0 mm
08:50 AM 49.8°F9.9°C 38.1°F3.4°C 64% 8.1 mph NW13.0 kmh NW 10.4 mph16.7 kmh 30.65 in1037.9 mb - 0.00 in0.0 mm 0.00 in0.0 mm
08:55 AM 49.9°F9.9°C 37.8°F3.2°C 63% 5.8 mph NNW9.3 kmh NNW 11.5 mph18.5 kmh 30.65 in1037.9 mb - 0.00 in0.0 mm 0.00 in0.0 mm
09:00 AM 50.2°F10.1°C 37.3°F2.9°C 61% 5.8 mph NNW9.3 kmh NNW 9.2 mph14.8 kmh 30.64 in1037.6 mb - 0.00 in0.0 mm 0.00 in0.0 mm
09:10 AM 50.9°F10.5°C 37.5°F3.1°C 60% 6.9 mph NW11.1 kmh NW 9.2 mph14.8 kmh 30.65 in1037.9 mb - 0.00 in0.0 mm 0.00 in0.0 mm
09:15 AM 51.2°F10.7°C 37.4°F3.0°C 59% 8.1 mph NW13.0 kmh NW 11.5 mph18.5 kmh 30.64 in1037.6 mb - 0.00 in0.0 mm 0.00 in0.0 mm
09:20 AM 51.3°F10.7°C 37.0°F2.8°C 58% 6.9 mph NNW11.1 kmh NNW 9.2 mph14.8 kmh 30.65 in1037.9 mb - 0.00 in0.0 mm 0.00 in0.0 mm
09:25 AM 51.8°F11.0°C 37.5°F3.1°C 58% 8.1 mph NW13.0 kmh NW 11.5 mph18.5 kmh 30.65 in1037.9 mb - 0.00 in0.0 mm 0.00 in0.0 mm
09:30 AM 52.5°F11.4°C 39.4°F4.1°C 61% 3.5 mph NNW5.6 kmh NNW 8.1 mph13.0 kmh 30.64 in1037.6 mb - 0.00 in0.0 mm 0.00 in0.0 mm
09:35 AM 52.0°F11.1°C 36.7°F2.6°C 56% 10.4 mph NW16.7 kmh NW 12.7 mph20.4 kmh 30.64 in1037.6 mb - 0.00 in0.0 mm 0.00 in0.0 mm
09:40 AM 52.9°F11.6°C 37.2°F2.9°C 55% 5.8 mph NW9.3 kmh NW 11.5 mph18.5 kmh 30.64 in1037.6 mb - 0.00 in0.0 mm 0.00 in0.0 mm
09:45 AM 52.2°F11.2°C 37.4°F3.0°C 57% 8.1 mph NW13.0 kmh NW 11.5 mph18.5 kmh 30.64 in1037.6 mb - 0.00 in0.0 mm 0.00 in0.0 mm
09:50 AM 52.5°F11.4°C 38.1°F3.4°C 58% 5.8 mph NNW9.3 kmh NNW 11.5 mph18.5 kmh 30.64 in1037.6 mb - 0.00 in0.0 mm 0.00 in0.0 mm
09:55 AM 52.9°F11.6°C 39.0°F3.9°C 59% 10.4 mph WNW16.7 kmh WNW 16.1 mph25.9 kmh 30.64 in1037.6 mb - 0.00 in0.0 mm 0.00 in0.0 mm
10:00 AM 52.9°F11.6°C 39.4°F4.1°C 60% 9.2 mph NW14.8 kmh NW 12.7 mph20.4 kmh 30.64 in1037.6 mb - 0.00 in0.0 mm 0.00 in0.0 mm
10:10 AM 52.4°F11.3°C 36.3°F2.4°C 54% 8.1 mph NW13.0 kmh NW 10.4 mph16.7 kmh 30.64 in1037.6 mb - 0.00 in0.0 mm 0.00 in0.0 mm
10:15 AM 52.8°F11.6°C 35.7°F2.1°C 52% 8.1 mph NW13.0 kmh NW 9.2 mph14.8 kmh 30.64 in1037.6 mb - 0.00 in0.0 mm 0.00 in0.0 mm
10:20 AM 53.3°F11.8°C 37.5°F3.1°C 55% 8.1 mph NW13.0 kmh NW 11.5 mph18.5 kmh 30.63 in1037.3 mb - 0.00 in0.0 mm 0.00 in0.0 mm
10:25 AM 53.3°F11.8°C 37.5°F3.1°C 55% 4.6 mph NW7.4 kmh NW 6.9 mph11.1 kmh 30.63 in1037.3 mb - 0.00 in0.0 mm 0.00 in0.0 mm
10:30 AM 53.4°F11.9°C 37.2°F2.9°C 54% 8.1 mph NW13.0 kmh NW 10.4 mph16.7 kmh 30.63 in1037.3 mb - 0.00 in0.0 mm 0.00 in0.0 mm
10:35 AM 54.1°F12.3°C 36.9°F2.7°C 52% 10.4 mph WNW16.7 kmh WNW 16.1 mph25.9 kmh 30.63 in1037.3 mb - 0.00 in0.0 mm 0.00 in0.0 mm
10:40 AM 53.5°F11.9°C 36.8°F2.7°C 53% 10.4 mph NW16.7 kmh NW 15.0 mph24.1 kmh 30.63 in1037.3 mb - 0.00 in0.0 mm 0.00 in0.0 mm
10:45 AM 53.7°F12.1°C 36.5°F2.5°C 52% 9.2 mph NW14.8 kmh NW 10.4 mph16.7 kmh 30.63 in1037.3 mb - 0.00 in0.0 mm 0.00 in0.0 mm
10:50 AM 54.0°F12.2°C 34.7°F1.5°C 48% 11.5 mph NW18.5 kmh NW 15.0 mph24.1 kmh 30.64 in1037.6 mb - 0.00 in0.0 mm 0.00 in0.0 mm
10:55 AM 53.7°F12.1°C 36.0°F2.2°C 51% 8.1 mph NW13.0 kmh NW 11.5 mph18.5 kmh 30.64 in1037.6 mb - 0.00 in0.0 mm 0.00 in0.0 mm
11:00 AM 54.0°F12.2°C 36.2°F2.3°C 51% 11.5 mph WNW18.5 kmh WNW 13.8 mph22.2 kmh 30.64 in1037.6 mb - 0.00 in0.0 mm 0.00 in0.0 mm
11:10 AM 54.4°F12.4°C 37.6°F3.1°C 53% 8.1 mph NNW13.0 kmh NNW 10.4 mph16.7 kmh 30.64 in1037.6 mb - 0.00 in0.0 mm 0.00 in0.0 mm
11:15 AM 54.9°F12.7°C 37.1°F2.8°C 51% 6.9 mph NW11.1 kmh NW 11.5 mph18.5 kmh 30.64 in1037.6 mb - 0.00 in0.0 mm 0.00 in0.0 mm
11:20 AM 54.6°F12.6°C 37.8°F3.2°C 53% 10.4 mph NW16.7 kmh NW 16.1 mph25.9 kmh 30.63 in1037.3 mb - 0.00 in0.0 mm 0.00 in0.0 mm
11:25 AM 53.4°F11.9°C 34.7°F1.5°C 49% 11.5 mph NW18.5 kmh NW 11.5 mph18.5 kmh 30.63 in1037.3 mb - 0.00 in0.0 mm 0.00 in0.0 mm
11:30 AM 54.3°F12.4°C 36.5°F2.5°C 51% 8.1 mph NNW13.0 kmh NNW 11.5 mph18.5 kmh 30.64 in1037.6 mb - 0.00 in0.0 mm 0.00 in0.0 mm
11:35 AM 55.1°F12.8°C 36.3°F2.4°C 49% 9.2 mph NW14.8 kmh NW 12.7 mph20.4 kmh 30.63 in1037.3 mb - 0.00 in0.0 mm 0.00 in0.0 mm
11:40 AM 54.7°F12.6°C 36.4°F2.4°C 50% 10.4 mph WNW16.7 kmh WNW 13.8 mph22.2 kmh 30.64 in1037.6 mb - 0.00 in0.0 mm 0.00 in0.0 mm
11:45 AM 55.1°F12.8°C 36.8°F2.7°C 50% 11.5 mph NW18.5 kmh NW 15.0 mph24.1 kmh 30.63 in1037.3 mb - 0.00 in0.0 mm 0.00 in0.0 mm
11:50 AM 54.7°F12.6°C 35.9°F2.2°C 49% 8.1 mph NNW13.0 kmh NNW 11.5 mph18.5 kmh 30.63 in1037.3 mb - 0.00 in0.0 mm 0.00 in0.0 mm
11:55 AM 55.2°F12.9°C 36.4°F2.4°C 49% 13.8 mph WNW22.2 kmh WNW 16.1 mph25.9 kmh 30.64 in1037.6 mb - 0.00 in0.0 mm 0.00 in0.0 mm
12:00 PM 54.6°F12.6°C 35.8°F2.1°C 49% 11.5 mph WNW18.5 kmh WNW 13.8 mph22.2 kmh 30.63 in1037.3 mb - 0.00 in0.0 mm 0.00 in0.0 mm
12:10 PM 55.9°F13.3°C 34.2°F1.2°C 44% 12.7 mph NW20.4 kmh NW 13.8 mph22.2 kmh 30.63 in1037.3 mb - 0.00 in0.0 mm 0.00 in0.0 mm
12:15 PM 56.0°F13.3°C 35.5°F1.9°C 46% 8.1 mph NW13.0 kmh NW 10.4 mph16.7 kmh 30.63 in1037.3 mb - 0.00 in0.0 mm 0.00 in0.0 mm
12:20 PM 56.4°F13.6°C 36.4°F2.4°C 47% 6.9 mph NW11.1 kmh NW 11.5 mph18.5 kmh 30.63 in1037.3 mb - 0.00 in0.0 mm 0.00 in0.0 mm
12:25 PM 55.3°F12.9°C 35.9°F2.2°C 48% 8.1 mph NNW13.0 kmh NNW 13.8 mph22.2 kmh 30.63 in1037.3 mb - 0.00 in0.0 mm 0.00 in0.0 mm
12:30 PM 54.9°F12.7°C 37.1°F2.8°C 51% 6.9 mph NW11.1 kmh NW 9.2 mph14.8 kmh 30.63 in1037.3 mb - 0.00 in0.0 mm 0.00 in0.0 mm
12:35 PM 55.5°F13.1°C 37.1°F2.8°C 50% 10.4 mph NW16.7 kmh NW 11.5 mph18.5 kmh 30.63 in1037.3 mb - 0.00 in0.0 mm 0.00 in0.0 mm
12:40 PM 56.7°F13.7°C 36.7°F2.6°C 47% 11.5 mph NW18.5 kmh NW 18.4 mph29.6 kmh 30.62 in1036.9 mb - 0.00 in0.0 mm 0.00 in0.0 mm
12:45 PM 56.2°F13.4°C 36.2°F2.3°C 47% 6.9 mph N11.1 kmh N 11.5 mph18.5 kmh 30.63 in1037.3 mb - 0.00 in0.0 mm 0.00 in0.0 mm
12:50 PM 57.0°F13.9°C 36.4°F2.4°C 46% 9.2 mph NNW14.8 kmh NNW 13.8 mph22.2 kmh 30.62 in1036.9 mb - 0.00 in0.0 mm 0.00 in0.0 mm
12:55 PM 56.4°F13.6°C 37.0°F2.8°C 48% 9.2 mph WNW14.8 kmh WNW 13.8 mph22.2 kmh 30.62 in1036.9 mb - 0.00 in0.0 mm 0.00 in0.0 mm
01:00 PM 55.5°F13.1°C 34.5°F1.4°C 45% 11.5 mph NW18.5 kmh NW 12.7 mph20.4 kmh 30.62 in1036.9 mb - 0.00 in0.0 mm 0.00 in0.0 mm
01:10 PM 57.4°F14.1°C 37.8°F3.2°C 48% 11.5 mph NW18.5 kmh NW 16.1 mph25.9 kmh 30.62 in1036.9 mb - 0.00 in0.0 mm 0.00 in0.0 mm
01:15 PM 56.7°F13.7°C 35.6°F2.0°C 45% 9.2 mph NW14.8 kmh NW 12.7 mph20.4 kmh 30.62 in1036.9 mb - 0.00 in0.0 mm 0.00 in0.0 mm
01:20 PM 57.0°F13.9°C 35.8°F2.1°C 45% 11.5 mph NW18.5 kmh NW 17.3 mph27.8 kmh 30.62 in1036.9 mb - 0.00 in0.0 mm 0.00 in0.0 mm
01:25 PM 56.4°F13.6°C 35.3°F1.8°C 45% 9.2 mph NW14.8 kmh NW 13.8 mph22.2 kmh 30.62 in1036.9 mb - 0.00 in0.0 mm 0.00 in0.0 mm
01:30 PM 56.7°F13.7°C 35.0°F1.7°C 44% 11.5 mph NNW18.5 kmh NNW 17.3 mph27.8 kmh 30.62 in1036.9 mb - 0.00 in0.0 mm 0.00 in0.0 mm
01:35 PM 55.5°F13.1°C 35.0°F1.7°C 46% 9.2 mph NW14.8 kmh NW 12.7 mph20.4 kmh 30.62 in1036.9 mb - 0.00 in0.0 mm 0.00 in0.0 mm
01:40 PM 56.9°F13.8°C 38.5°F3.6°C 50% 8.1 mph NW13.0 kmh NW 12.7 mph20.4 kmh 30.62 in1036.9 mb - 0.00 in0.0 mm 0.00 in0.0 mm
01:45 PM 56.9°F13.8°C 35.8°F2.1°C 45% 11.5 mph NW18.5 kmh NW 18.4 mph29.6 kmh 30.62 in1036.9 mb - 0.00 in0.0 mm 0.00 in0.0 mm
01:50 PM 56.8°F13.8°C 36.2°F2.3°C 46% 11.5 mph NW18.5 kmh NW 18.4 mph29.6 kmh 30.62 in1036.9 mb - 0.00 in0.0 mm 0.00 in0.0 mm
01:55 PM 56.4°F13.6°C 33.6°F0.9°C 42% 13.8 mph NW22.2 kmh NW 17.3 mph27.8 kmh 30.61 in1036.6 mb - 0.00 in0.0 mm 0.00 in0.0 mm
02:00 PM 55.9°F13.3°C 35.4°F1.9°C 46% 8.1 mph NW13.0 kmh NW 13.8 mph22.2 kmh 30.61 in1036.6 mb - 0.00 in0.0 mm 0.00 in0.0 mm
02:10 PM 56.8°F13.8°C 34.5°F1.4°C 43% 9.2 mph NW14.8 kmh NW 13.8 mph22.2 kmh 30.61 in1036.6 mb - 0.00 in0.0 mm 0.00 in0.0 mm
02:15 PM 56.9°F13.8°C 35.2°F1.8°C 44% 8.1 mph NW13.0 kmh NW 10.4 mph16.7 kmh 30.62 in1036.9 mb - 0.00 in0.0 mm 0.00 in0.0 mm
02:20 PM 57.9°F14.4°C 36.7°F2.6°C 45% 8.1 mph NNW13.0 kmh NNW 11.5 mph18.5 kmh 30.62 in1036.9 mb - 0.00 in0.0 mm 0.00 in0.0 mm
02:25 PM 57.1°F13.9°C 36.0°F2.2°C 45% 10.4 mph NW16.7 kmh NW 13.8 mph22.2 kmh 30.61 in1036.6 mb - 0.00 in0.0 mm 0.00 in0.0 mm
02:30 PM 56.5°F13.6°C 37.5°F3.1°C 49% 8.1 mph NW13.0 kmh NW 10.4 mph16.7 kmh 30.61 in1036.6 mb - 0.00 in0.0 mm 0.00 in0.0 mm
02:35 PM 57.3°F14.1°C 37.8°F3.2°C 48% 5.8 mph NW9.3 kmh NW 4.6 mph7.4 kmh 30.61 in1036.6 mb - 0.00 in0.0 mm 0.00 in0.0 mm
02:40 PM 57.5°F14.2°C 36.3°F2.4°C 45% 10.4 mph NW16.7 kmh NW 13.8 mph22.2 kmh 30.61 in1036.6 mb - 0.00 in0.0 mm 0.00 in0.0 mm
02:45 PM 57.2°F14.0°C 33.7°F0.9°C 41% 10.4 mph NW16.7 kmh NW 12.7 mph20.4 kmh 30.61 in1036.6 mb - 0.00 in0.0 mm 0.00 in0.0 mm
02:50 PM 57.7°F14.3°C 37.0°F2.8°C 46% 9.2 mph WNW14.8 kmh WNW 16.1 mph25.9 kmh 30.61 in1036.6 mb - 0.00 in0.0 mm 0.00 in0.0 mm
02:55 PM 57.0°F13.9°C 36.4°F2.4°C 46% 9.2 mph WNW14.8 kmh WNW 16.1 mph25.9 kmh 30.61 in1036.6 mb - 0.00 in0.0 mm 0.00 in0.0 mm
03:00 PM 57.3°F14.1°C 37.2°F2.9°C 47% 8.1 mph NW13.0 kmh NW 11.5 mph18.5 kmh 30.60 in1036.2 mb - 0.00 in0.0 mm 0.00 in0.0 mm
03:10 PM 56.9°F13.8°C 35.8°F2.1°C 45% 10.4 mph NW16.7 kmh NW 17.3 mph27.8 kmh 30.60 in1036.2 mb - 0.00 in0.0 mm 0.00 in0.0 mm
03:15 PM 56.1°F13.4°C 35.0°F1.7°C 45% 11.5 mph NW18.5 kmh NW 15.0 mph24.1 kmh 30.60 in1036.2 mb - 0.00 in0.0 mm 0.00 in0.0 mm
03:20 PM 57.1°F13.9°C 36.5°F2.5°C 46% 8.1 mph NW13.0 kmh NW 17.3 mph27.8 kmh 30.60 in1036.2 mb - 0.00 in0.0 mm 0.00 in0.0 mm
03:25 PM 57.0°F13.9°C 35.8°F2.1°C 45% 11.5 mph NW18.5 kmh NW 15.0 mph24.1 kmh 30.60 in1036.2 mb - 0.00 in0.0 mm 0.00 in0.0 mm
03:30 PM 56.0°F13.3°C 38.6°F3.7°C 52% 6.9 mph NW11.1 kmh NW 10.4 mph16.7 kmh 30.60 in1036.2 mb - 0.00 in0.0 mm 0.00 in0.0 mm
03:35 PM 56.4°F13.6°C 37.4°F3.0°C 49% 12.7 mph NW20.4 kmh NW 16.1 mph25.9 kmh 30.60 in1036.2 mb - 0.00 in0.0 mm 0.00 in0.0 mm
03:40 PM 56.4°F13.6°C 36.4°F2.4°C 47% 11.5 mph NW18.5 kmh NW 16.1 mph25.9 kmh 30.60 in1036.2 mb - 0.00 in0.0 mm 0.00 in0.0 mm
03:45 PM 56.0°F13.3°C 36.6°F2.6°C 48% 11.5 mph WNW18.5 kmh WNW 15.0 mph24.1 kmh 30.60 in1036.2 mb - 0.00 in0.0 mm 0.00 in0.0 mm
03:50 PM 55.8°F13.2°C 34.8°F1.6°C 45% 10.4 mph NW16.7 kmh NW 15.0 mph24.1 kmh 30.61 in1036.6 mb - 0.00 in0.0 mm 0.00 in0.0 mm
03:55 PM 55.2°F12.9°C 35.3°F1.8°C 47% 11.5 mph NW18.5 kmh NW 15.0 mph24.1 kmh 30.60 in1036.2 mb - 0.00 in0.0 mm 0.00 in0.0 mm
04:00 PM 55.5°F13.1°C 35.5°F1.9°C 47% 9.2 mph NW14.8 kmh NW 15.0 mph24.1 kmh 30.60 in1036.2 mb - 0.00 in0.0 mm 0.00 in0.0 mm
04:10 PM 56.0°F13.3°C 36.6°F2.6°C 48% 8.1 mph NW13.0 kmh NW 11.5 mph18.5 kmh 30.60 in1036.2 mb - 0.00 in0.0 mm 0.00 in0.0 mm
04:15 PM 56.1°F13.4°C 36.6°F2.6°C 48% 8.1 mph WNW13.0 kmh WNW 11.5 mph18.5 kmh 30.60 in1036.2 mb - 0.00 in0.0 mm 0.00 in0.0 mm
04:20 PM 56.0°F13.3°C 37.6°F3.1°C 50% 11.5 mph NW18.5 kmh NW 17.3 mph27.8 kmh 30.60 in1036.2 mb - 0.00 in0.0 mm 0.00 in0.0 mm
04:25 PM 56.9°F13.8°C 38.4°F3.6°C 50% 10.4 mph NNW16.7 kmh NNW 12.7 mph20.4 kmh 30.60 in1036.2 mb - 0.00 in0.0 mm 0.00 in0.0 mm
04:30 PM 56.7°F13.7°C 37.2°F2.9°C 48% 9.2 mph N14.8 kmh N 13.8 mph22.2 kmh 30.60 in1036.2 mb - 0.00 in0.0 mm 0.00 in0.0 mm
04:35 PM 56.0°F13.3°C 36.5°F2.5°C 48% 10.4 mph WNW16.7 kmh WNW 12.7 mph20.4 kmh 30.60 in1036.2 mb - 0.00 in0.0 mm 0.00 in0.0 mm
04:40 PM 55.5°F13.1°C 36.1°F2.3°C 48% 10.4 mph NW16.7 kmh NW 11.5 mph18.5 kmh 30.60 in1036.2 mb - 0.00 in0.0 mm 0.00 in0.0 mm
04:45 PM 55.4°F13.0°C 35.5°F1.9°C 47% 11.5 mph NW18.5 kmh NW 13.8 mph22.2 kmh 30.60 in1036.2 mb - 0.00 in0.0 mm 0.00 in0.0 mm
04:50 PM 55.2°F12.9°C 35.3°F1.8°C 47% 12.7 mph WNW20.4 kmh WNW 15.0 mph24.1 kmh 30.60 in1036.2 mb - 0.00 in0.0 mm 0.00 in0.0 mm
04:55 PM 54.8°F12.7°C 36.0°F2.2°C 49% 12.7 mph NW20.4 kmh NW 16.1 mph25.9 kmh 30.60 in1036.2 mb - 0.00 in0.0 mm 0.00 in0.0 mm
05:00 PM 54.9°F12.7°C 36.1°F2.3°C 49% 10.4 mph NW16.7 kmh NW 13.8 mph22.2 kmh 30.60 in1036.2 mb - 0.00 in0.0 mm 0.00 in0.0 mm
05:10 PM 54.4°F12.4°C 36.1°F2.3°C 50% 10.4 mph WNW16.7 kmh WNW 16.1 mph25.9 kmh 30.60 in1036.2 mb - 0.00 in0.0 mm 0.00 in0.0 mm
05:15 PM 54.4°F12.4°C 36.6°F2.6°C 51% 8.1 mph NW13.0 kmh NW 11.5 mph18.5 kmh 30.60 in1036.2 mb - 0.00 in0.0 mm 0.00 in0.0 mm
05:20 PM 54.5°F12.5°C 35.7°F2.1°C 49% 16.1 mph NW25.9 kmh NW 17.3 mph27.8 kmh 30.60 in1036.2 mb - 0.00 in0.0 mm 0.00 in0.0 mm
05:25 PM 53.8°F12.1°C 35.6°F2.0°C 50% 9.2 mph NW14.8 kmh NW 13.8 mph22.2 kmh 30.60 in1036.2 mb - 0.00 in0.0 mm 0.00 in0.0 mm
05:30 PM 54.5°F12.5°C 36.7°F2.6°C 51% 6.9 mph N11.1 kmh N 13.8 mph22.2 kmh 30.60 in1036.2 mb - 0.00 in0.0 mm 0.00 in0.0 mm
05:35 PM 54.2°F12.3°C 36.5°F2.5°C 51% 10.4 mph NW16.7 kmh NW 12.7 mph20.4 kmh 30.60 in1036.2 mb - 0.00 in0.0 mm 0.00 in0.0 mm
05:40 PM 53.9°F12.2°C 36.2°F2.3°C 51% 9.2 mph NW14.8 kmh NW 11.5 mph18.5 kmh 30.60 in1036.2 mb - 0.00 in0.0 mm 0.00 in0.0 mm
05:45 PM 53.4°F11.9°C 36.2°F2.3°C 52% 8.1 mph NW13.0 kmh NW 11.5 mph18.5 kmh 30.60 in1036.2 mb - 0.00 in0.0 mm 0.00 in0.0 mm
05:50 PM 53.5°F11.9°C 36.7°F2.6°C 53% 11.5 mph NW18.5 kmh NW 16.1 mph25.9 kmh 30.61 in1036.6 mb - 0.00 in0.0 mm 0.00 in0.0 mm
05:55 PM 53.4°F11.9°C 36.2°F2.3°C 52% 11.5 mph NW18.5 kmh NW 16.1 mph25.9 kmh 30.61 in1036.6 mb - 0.00 in0.0 mm 0.00 in0.0 mm
06:00 PM 53.2°F11.8°C 36.0°F2.2°C 52% 11.5 mph NW18.5 kmh NW 13.8 mph22.2 kmh 30.61 in1036.6 mb - 0.00 in0.0 mm 0.00 in0.0 mm
06:10 PM 52.9°F11.6°C 36.7°F2.6°C 54% 11.5 mph NW18.5 kmh NW 16.1 mph25.9 kmh 30.61 in1036.6 mb - 0.00 in0.0 mm 0.00 in0.0 mm
06:15 PM 52.9°F11.6°C 37.2°F2.9°C 55% 6.9 mph NW11.1 kmh NW 11.5 mph18.5 kmh 30.61 in1036.6 mb - 0.00 in0.0 mm 0.00 in0.0 mm
06:20 PM 52.8°F11.6°C 36.6°F2.6°C 54% 9.2 mph NW14.8 kmh NW 16.1 mph25.9 kmh 30.61 in1036.6 mb - 0.00 in0.0 mm 0.00 in0.0 mm
06:25 PM 52.5°F11.4°C 36.8°F2.7°C 55% 6.9 mph NNW11.1 kmh NNW 11.5 mph18.5 kmh 30.60 in1036.2 mb - 0.00 in0.0 mm 0.00 in0.0 mm
06:30 PM 52.2°F11.2°C 36.9°F2.7°C 56% 6.9 mph NW11.1 kmh NW 11.5 mph18.5 kmh 30.61 in1036.6 mb - 0.00 in0.0 mm 0.00 in0.0 mm
06:35 PM 52.4°F11.3°C 36.7°F2.6°C 55% 6.9 mph WNW11.1 kmh WNW 10.4 mph16.7 kmh 30.60 in1036.2 mb - 0.00 in0.0 mm 0.00 in0.0 mm
06:40 PM 52.6°F11.4°C 37.3°F2.9°C 56% 10.4 mph NNW16.7 kmh NNW 13.8 mph22.2 kmh 30.60 in1036.2 mb - 0.00 in0.0 mm 0.00 in0.0 mm
06:45 PM 52.5°F11.4°C 36.8°F2.7°C 55% 6.9 mph WNW11.1 kmh WNW 10.4 mph16.7 kmh 30.60 in1036.2 mb - 0.00 in0.0 mm 0.00 in0.0 mm
06:50 PM 52.2°F11.2°C 36.9°F2.7°C 56% 10.4 mph NW16.7 kmh NW 11.5 mph18.5 kmh 30.60 in1036.2 mb - 0.00 in0.0 mm 0.00 in0.0 mm
06:55 PM 52.2°F11.2°C 37.4°F3.0°C 57% 8.1 mph NW13.0 kmh NW 11.5 mph18.5 kmh 30.60 in1036.2 mb - 0.00 in0.0 mm 0.00 in0.0 mm
07:00 PM 52.1°F11.2°C 37.3°F2.9°C 57% 8.1 mph NNW13.0 kmh NNW 12.7 mph20.4 kmh 30.60 in1036.2 mb - 0.00 in0.0 mm 0.00 in0.0 mm
07:10 PM 51.2°F10.7°C 37.3°F2.9°C 59% 6.9 mph NW11.1 kmh NW 9.2 mph14.8 kmh 30.60 in1036.2 mb - 0.00 in0.0 mm 0.00 in0.0 mm
07:15 PM 51.2°F10.7°C 36.9°F2.7°C 58% 5.8 mph NW9.3 kmh NW 10.4 mph16.7 kmh 30.60 in1036.2 mb - 0.00 in0.0 mm 0.00 in0.0 mm
07:20 PM 51.1°F10.6°C 36.8°F2.7°C 58% 5.8 mph NW9.3 kmh NW 9.2 mph14.8 kmh 30.60 in1036.2 mb - 0.00 in0.0 mm 0.00 in0.0 mm
07:25 PM 50.9°F10.5°C 36.6°F2.6°C 58% 8.1 mph NW13.0 kmh NW 9.2 mph14.8 kmh 30.60 in1036.2 mb - 0.00 in0.0 mm 0.00 in0.0 mm
07:30 PM 50.6°F10.3°C 36.8°F2.7°C 59% 8.1 mph NW13.0 kmh NW 11.5 mph18.5 kmh 30.60 in1036.2 mb - 0.00 in0.0 mm 0.00 in0.0 mm
07:35 PM 50.4°F10.2°C 36.6°F2.6°C 59% 8.1 mph NW13.0 kmh NW 10.4 mph16.7 kmh 30.60 in1036.2 mb - 0.00 in0.0 mm 0.00 in0.0 mm
07:40 PM 50.0°F10.0°C 36.7°F2.6°C 60% 6.9 mph NW11.1 kmh NW 8.1 mph13.0 kmh 30.61 in1036.6 mb - 0.00 in0.0 mm 0.00 in0.0 mm
07:45 PM 49.9°F9.9°C 37.0°F2.8°C 61% 5.8 mph NW9.3 kmh NW 11.5 mph18.5 kmh 30.61 in1036.6 mb - 0.00 in0.0 mm 0.00 in0.0 mm
07:50 PM 49.4°F9.7°C 37.4°F3.0°C 63% 5.8 mph NW9.3 kmh NW 9.2 mph14.8 kmh 30.61 in1036.6 mb - 0.00 in0.0 mm 0.00 in0.0 mm
07:55 PM 49.0°F9.4°C 37.3°F2.9°C 64% 3.5 mph WNW5.6 kmh WNW 6.9 mph11.1 kmh 30.61 in1036.6 mb - 0.00 in0.0 mm 0.00 in0.0 mm
08:00 PM 48.4°F9.1°C 37.2°F2.9°C 65% 4.6 mph NW7.4 kmh NW 4.6 mph7.4 kmh 30.61 in1036.6 mb - 0.00 in0.0 mm 0.00 in0.0 mm
08:10 PM 48.2°F9.0°C 37.4°F3.0°C 66% 6.9 mph NW11.1 kmh NW 11.5 mph18.5 kmh 30.62 in1036.9 mb - 0.00 in0.0 mm 0.00 in0.0 mm
08:15 PM 48.3°F9.1°C 37.4°F3.0°C 66% 5.8 mph NW9.3 kmh NW 8.1 mph13.0 kmh 30.62 in1036.9 mb - 0.00 in0.0 mm 0.00 in0.0 mm
08:20 PM 48.3°F9.1°C 37.4°F3.0°C 66% 5.8 mph NW9.3 kmh NW 6.9 mph11.1 kmh 30.62 in1036.9 mb - 0.00 in0.0 mm 0.00 in0.0 mm
08:25 PM 48.2°F9.0°C 37.7°F3.2°C 67% 6.9 mph WNW11.1 kmh WNW 9.2 mph14.8 kmh 30.62 in1036.9 mb - 0.00 in0.0 mm 0.00 in0.0 mm
08:30 PM 48.2°F9.0°C 37.8°F3.2°C 67% 4.6 mph NW7.4 kmh NW 8.1 mph13.0 kmh 30.62 in1036.9 mb - 0.00 in0.0 mm 0.00 in0.0 mm
08:35 PM 48.0°F8.9°C 38.0°F3.3°C 68% 5.8 mph NW9.3 kmh NW 8.1 mph13.0 kmh 30.63 in1037.3 mb - 0.00 in0.0 mm 0.00 in0.0 mm
08:40 PM 47.8°F8.8°C 37.8°F3.2°C 68% 4.6 mph WNW7.4 kmh WNW 11.5 mph18.5 kmh 30.62 in1036.9 mb - 0.00 in0.0 mm 0.00 in0.0 mm
08:45 PM 47.6°F8.7°C 37.9°F3.3°C 69% 4.6 mph NW7.4 kmh NW 5.8 mph9.3 kmh 30.62 in1036.9 mb - 0.00 in0.0 mm 0.00 in0.0 mm
08:50 PM 47.3°F8.5°C 37.6°F3.1°C 69% 3.5 mph NW5.6 kmh NW 3.5 mph5.6 kmh 30.62 in1036.9 mb - 0.00 in0.0 mm 0.00 in0.0 mm
08:55 PM 46.8°F8.2°C 37.5°F3.1°C 70% 2.3 mph NW3.7 kmh NW 3.5 mph5.6 kmh 30.62 in1036.9 mb - 0.00 in0.0 mm 0.00 in0.0 mm
09:00 PM 46.3°F7.9°C 37.4°F3.0°C 71% 3.5 mph NW5.6 kmh NW 5.8 mph9.3 kmh 30.62 in1036.9 mb - 0.00 in0.0 mm 0.00 in0.0 mm
09:10 PM 45.8°F7.7°C 37.3°F2.9°C 72% 2.3 mph NW3.7 kmh NW 3.5 mph5.6 kmh 30.63 in1037.3 mb - 0.00 in0.0 mm 0.00 in0.0 mm
09:15 PM 45.6°F7.6°C 37.5°F3.1°C 73% 3.5 mph NW5.6 kmh NW 4.6 mph7.4 kmh 30.63 in1037.3 mb - 0.00 in0.0 mm 0.00 in0.0 mm
09:20 PM 45.3°F7.4°C 37.2°F2.9°C 73% 4.6 mph NW7.4 kmh NW 8.1 mph13.0 kmh 30.63 in1037.3 mb - 0.00 in0.0 mm 0.00 in0.0 mm
09:25 PM 45.2°F7.3°C 37.4°F3.0°C 74% 4.6 mph WNW7.4 kmh WNW 8.1 mph13.0 kmh 30.62 in1036.9 mb - 0.00 in0.0 mm 0.00 in0.0 mm
09:30 PM 45.2°F7.3°C 37.4°F3.0°C 74% 4.6 mph WNW7.4 kmh WNW 6.9 mph11.1 kmh 30.62 in1036.9 mb - 0.00 in0.0 mm 0.00 in0.0 mm
09:35 PM 44.9°F7.2°C 37.1°F2.8°C 74% 3.5 mph NW5.6 kmh NW 3.5 mph5.6 kmh 30.63 in1037.3 mb - 0.00 in0.0 mm 0.00 in0.0 mm
09:40 PM 44.6°F7.0°C 36.8°F2.7°C 74% 2.3 mph NW3.7 kmh NW 2.3 mph3.7 kmh 30.62 in1036.9 mb - 0.00 in0.0 mm 0.00 in0.0 mm
09:45 PM 44.1°F6.7°C 36.7°F2.6°C 75% 2.3 mph NW3.7 kmh NW 3.5 mph5.6 kmh 30.62 in1036.9 mb - 0.00 in0.0 mm 0.00 in0.0 mm
09:50 PM 43.7°F6.5°C 36.6°F2.6°C 76% 2.3 mph NW3.7 kmh NW 3.5 mph5.6 kmh 30.63 in1037.3 mb - 0.00 in0.0 mm 0.00 in0.0 mm
09:55 PM 43.6°F6.4°C 36.6°F2.6°C 76% 3.5 mph NW5.6 kmh NW 3.5 mph5.6 kmh 30.63 in1037.3 mb - 0.00 in0.0 mm 0.00 in0.0 mm
10:00 PM 43.4°F6.3°C 36.3°F2.4°C 76% 3.5 mph NW5.6 kmh NW 4.6 mph7.4 kmh 30.63 in1037.3 mb - 0.00 in0.0 mm 0.00 in0.0 mm
10:10 PM 42.8°F6.0°C 36.1°F2.3°C 77% 2.3 mph WNW3.7 kmh WNW 3.5 mph5.6 kmh 30.63 in1037.3 mb - 0.00 in0.0 mm 0.00 in0.0 mm
10:15 PM 42.7°F5.9°C 36.4°F2.4°C 78% 1.2 mph NW1.9 kmh NW 2.3 mph3.7 kmh 30.63 in1037.3 mb - 0.00 in0.0 mm 0.00 in0.0 mm
10:20 PM 43.0°F6.1°C 36.3°F2.4°C 77% 1.2 mph NW1.9 kmh NW 2.3 mph3.7 kmh 30.63 in1037.3 mb - 0.00 in0.0 mm 0.00 in0.0 mm
10:25 PM 43.0°F6.1°C 36.3°F2.4°C 77% Calm Calm 1.2 mph1.9 kmh 30.63 in1037.3 mb - 0.00 in0.0 mm 0.00 in0.0 mm
10:30 PM 42.6°F5.9°C 35.9°F2.2°C 77% Calm Calm -- 30.62 in1036.9 mb - 0.00 in0.0 mm 0.00 in0.0 mm
10:35 PM 42.6°F5.9°C 35.9°F2.2°C 77% 1.2 mph N1.9 kmh N 3.5 mph5.6 kmh 30.62 in1036.9 mb - 0.00 in0.0 mm 0.00 in0.0 mm
10:40 PM 42.8°F6.0°C 36.1°F2.3°C 77% 2.3 mph NNW3.7 kmh NNW 3.5 mph5.6 kmh 30.63 in1037.3 mb - 0.00 in0.0 mm 0.00 in0.0 mm
10:45 PM 42.9°F6.1°C 36.2°F2.3°C 77% 1.2 mph NNW1.9 kmh NNW 2.3 mph3.7 kmh 30.63 in1037.3 mb - 0.00 in0.0 mm 0.00 in0.0 mm
10:50 PM 42.9°F6.1°C 35.8°F2.1°C 76% 2.3 mph NW3.7 kmh NW 2.3 mph3.7 kmh 30.62 in1036.9 mb - 0.00 in0.0 mm 0.00 in0.0 mm
10:55 PM 42.5°F5.8°C 35.5°F1.9°C 76% 2.3 mph NW3.7 kmh NW 3.5 mph5.6 kmh 30.62 in1036.9 mb - 0.00 in0.0 mm 0.00 in0.0 mm
11:00 PM 42.6°F5.9°C 35.6°F2.0°C 76% 2.3 mph NNW3.7 kmh NNW 3.5 mph5.6 kmh 30.62 in1036.9 mb - 0.00 in0.0 mm 0.00 in0.0 mm
11:10 PM 42.2°F5.7°C 34.8°F1.6°C 75% 2.3 mph NNW3.7 kmh NNW 3.5 mph5.6 kmh 30.63 in1037.3 mb - 0.00 in0.0 mm 0.00 in0.0 mm
11:15 PM 42.3°F5.7°C 34.6°F1.4°C 74% 1.2 mph NNW1.9 kmh NNW 2.3 mph3.7 kmh 30.63 in1037.3 mb - 0.00 in0.0 mm 0.00 in0.0 mm
11:20 PM 42.3°F5.7°C 34.3°F1.3°C 73% 1.2 mph NNW1.9 kmh NNW 3.5 mph5.6 kmh 30.63 in1037.3 mb - 0.00 in0.0 mm 0.00 in0.0 mm
11:25 PM 42.0°F5.6°C 34.0°F1.1°C 73% 1.2 mph N1.9 kmh N 2.3 mph3.7 kmh 30.63 in1037.3 mb - 0.00 in0.0 mm 0.00 in0.0 mm
11:30 PM 42.0°F5.6°C 34.3°F1.3°C 74% 1.2 mph N1.9 kmh N 3.5 mph5.6 kmh 30.63 in1037.3 mb - 0.00 in0.0 mm 0.00 in0.0 mm
11:35 PM 41.9°F5.5°C 34.9°F1.6°C 76% 2.3 mph NNW3.7 kmh NNW 3.5 mph5.6 kmh 30.62 in1036.9 mb - 0.00 in0.0 mm 0.00 in0.0 mm
11:40 PM 41.7°F5.4°C 35.0°F1.7°C 77% 1.2 mph NNW1.9 kmh NNW 3.5 mph5.6 kmh 30.62 in1036.9 mb - 0.00 in0.0 mm 0.00 in0.0 mm
11:45 PM 41.7°F5.4°C 34.7°F1.5°C 76% 2.3 mph NNW3.7 kmh NNW 3.5 mph5.6 kmh 30.62 in1036.9 mb - 0.00 in0.0 mm 0.00 in0.0 mm
11:50 PM 41.7°F5.4°C 34.0°F1.1°C 74% 2.3 mph N3.7 kmh N 3.5 mph5.6 kmh 30.63 in1037.3 mb - 0.00 in0.0 mm 0.00 in0.0 mm
11:55 PM 41.9°F5.5°C 33.9°F1.1°C 73% 2.3 mph N3.7 kmh N 3.5 mph5.6 kmh 30.63 in1037.3 mb - 0.00 in0.0 mm 0.00 in0.0 mm